Time;durP1;ratioP1;P1;durP2;ratioP2;P2;SDS_P1;SDS_P2;PMS_P1;PMS_P2;Temp;Humidity;BMP_temperature;BMP_pressure;BME280_temperature;BME280_humidity;BME280_pressure;Samples;Min_cycle;Max_cycle;Signal;HPM_P1;HPM_P2
2022/03/24 12:49:11;;;;;;;13.95;7.80;;;17.70;34.10;;;;;;5108063;27;20319;-77
2022/03/24 12:51:52;;;;;;;14.15;7.57;;;17.40;36.40;;;;;;5107856;28;20115;-77
2022/03/24 12:54:20;;;;;;;10.77;7.00;;;17.30;34.80;;;;;;5108686;28;20031;-76
2022/03/24 12:56:46;;;;;;;13.60;8.80;;;17.40;34.10;;;;;;5104368;28;20024;-77
2022/03/24 12:59:12;;;;;;;14.63;8.15;;;17.40;33.70;;;;;;5108131;28;20032;-78
2022/03/24 13:01:41;;;;;;;13.52;7.45;;;17.40;34.50;;;;;;5072297;28;20040;-77
2022/03/24 13:04:08;;;;;;;13.73;6.47;;;17.50;34.50;;;;;;5100982;28;20378;-77
2022/03/24 13:06:36;;;;;;;10.88;6.45;;;17.50;30.70;;;;;;5073016;28;20529;-78
2022/03/24 13:09:14;;;;;;;11.98;6.88;;;17.60;32.50;;;;;;5086616;28;20043;-78
2022/03/24 13:11:53;;;;;;;9.75;6.57;;;17.70;35.30;;;;;;5087877;28;20035;-78
2022/03/24 13:14:20;;;;;;;10.45;6.50;;;17.80;33.40;;;;;;5086789;28;20115;-77
2022/03/24 13:17:08;;;;;;;12.80;7.55;;;17.90;36.20;;;;;;5087703;28;20063;-77
2022/03/24 13:19:35;;;;;;;11.52;7.30;;;18.20;34.80;;;;;;5103534;28;20077;-77
2022/03/24 13:22:15;;;;;;;9.02;6.78;;;18.30;33.10;;;;;;5106701;28;20140;-80
2022/03/24 13:24:41;;;;;;;11.30;6.88;;;18.30;35.50;;;;;;5094207;28;20028;-79
2022/03/24 13:27:08;;;;;;;13.55;7.32;;;18.30;36.30;;;;;;5095815;28;20032;-79
2022/03/24 13:29:45;;;;;;;15.02;8.30;;;18.40;32.70;;;;;;5085982;28;20031;-78
2022/03/24 13:32:16;;;;;;;10.23;6.88;;;18.40;33.10;;;;;;5093644;28;20023;-77
2022/03/24 13:34:53;;;;;;;12.10;6.88;;;18.50;34.40;;;;;;5098852;28;20036;-77
2022/03/24 13:37:23;;;;;;;13.43;7.72;;;18.60;34.90;;;;;;5085795;28;20063;-77
2022/03/24 13:39:50;;;;;;;10.82;7.47;;;18.80;35.70;;;;;;5086894;28;20108;-79
2022/03/24 13:42:17;;;;;;;10.75;7.10;;;19.00;34.90;;;;;;5103870;28;20028;-79
2022/03/24 13:44:45;;;;;;;10.95;6.32;;;19.10;34.00;;;;;;5106495;28;20032;-78
2022/03/24 13:47:12;;;;;;;11.98;7.28;;;19.20;34.50;;;;;;5106816;28;20032;-80
2022/03/24 13:49:39;;;;;;;11.70;7.38;;;19.30;34.10;;;;;;5107340;28;20034;-82
2022/03/24 13:52:06;;;;;;;11.43;7.57;;;19.40;34.80;;;;;;5090044;28;20028;-76
2022/03/24 13:54:34;;;;;;;13.07;6.95;;;19.50;33.30;;;;;;5102874;28;20028;-79
2022/03/24 13:57:00;;;;;;;10.70;7.35;;;19.50;33.10;;;;;;5106935;28;20027;-76
2022/03/24 13:59:28;;;;;;;12.73;8.02;;;19.40;32.70;;;;;;5099160;28;20092;-78
2022/03/24 14:01:58;;;;;;;10.73;8.07;;;19.30;32.90;;;;;;5066936;28;20032;-77
2022/03/24 14:04:24;;;;;;;11.20;7.15;;;19.10;32.60;;;;;;5074917;28;20507;-79
2022/03/24 14:07:08;;;;;;;12.65;8.35;;;19.10;32.00;;;;;;5088915;28;20021;-80
2022/03/24 14:09:34;;;;;;;10.15;6.72;;;19.00;32.10;;;;;;5071946;28;20028;-77
2022/03/24 14:12:07;;;;;;;10.68;6.80;;;18.80;32.60;;;;;;5090921;28;20027;-78
2022/03/24 14:14:33;;;;;;;13.27;7.75;;;18.70;33.80;;;;;;5077045;28;20027;-79
2022/03/24 14:16:59;;;;;;;13.60;7.90;;;18.70;34.00;;;;;;5088163;28;20124;-79
2022/03/24 14:19:28;;;;;;;12.82;7.55;;;18.60;33.50;;;;;;5087693;28;20133;-80
2022/03/24 14:22:02;;;;;;;16.40;9.07;;;18.50;34.30;;;;;;5092621;28;20016;-79
2022/03/24 14:24:39;;;;;;;14.20;7.95;;;18.40;33.40;;;;;;5084981;28;20032;-80
2022/03/24 14:27:15;;;;;;;14.35;8.82;;;18.30;33.70;;;;;;5091069;28;20389;-80
2022/03/24 14:30:07;;;;;;;14.88;8.75;;;18.10;34.30;;;;;;5063979;28;20127;-81
2022/03/24 14:32:42;;;;;;;13.07;8.07;;;18.00;33.80;;;;;;5072421;28;20024;-78
2022/03/24 14:35:17;;;;;;;13.70;8.70;;;18.00;34.80;;;;;;5071034;28;20051;-79
2022/03/24 14:37:58;;;;;;;12.83;8.47;;;18.00;35.20;;;;;;5077992;28;20063;-79
2022/03/24 14:40:33;;;;;;;13.65;7.97;;;17.90;35.60;;;;;;5072162;28;20275;-79
2022/03/24 14:43:08;;;;;;;11.43;7.50;;;17.90;37.40;;;;;;5062942;28;20046;-78
2022/03/24 14:45:35;;;;;;;13.40;8.07;;;17.80;37.70;;;;;;5073527;28;20028;-78
2022/03/24 14:48:01;;;;;;;14.25;8.98;;;17.80;37.90;;;;;;5089945;28;20028;-77
2022/03/24 14:50:28;;;;;;;13.05;8.55;;;17.70;37.10;;;;;;5089129;28;20040;-78
2022/03/24 14:52:54;;;;;;;12.00;7.43;;;17.70;36.30;;;;;;5091566;28;20085;-80
2022/03/24 14:55:19;;;;;;;11.82;7.63;;;17.60;35.20;;;;;;5082001;28;20068;-80
2022/03/24 14:57:46;;;;;;;15.35;9.13;;;17.50;35.50;;;;;;5049952;28;20028;-77
2022/03/24 15:00:15;;;;;;;12.98;8.00;;;17.40;35.10;;;;;;5080904;28;20042;-78
2022/03/24 15:02:41;;;;;;;17.20;8.68;;;17.40;34.60;;;;;;5070751;28;20040;-77
2022/03/24 15:05:07;;;;;;;13.38;7.35;;;17.40;35.50;;;;;;5083709;28;20089;-77
2022/03/24 15:07:34;;;;;;;12.82;8.38;;;17.40;35.30;;;;;;5053499;28;20044;-77
2022/03/24 15:10:01;;;;;;;11.25;7.93;;;17.40;35.50;;;;;;5071143;28;20036;-77
2022/03/24 15:12:27;;;;;;;16.13;8.35;;;17.50;35.80;;;;;;5088962;28;20036;-79
2022/03/24 15:17:37;;;;;;;15.15;8.13;;;17.60;37.20;;;;;;5072173;28;20029;-77
2022/03/24 15:20:04;;;;;;;11.50;7.60;;;17.70;35.90;;;;;;5082905;28;20401;-77
2022/03/24 15:22:33;;;;;;;13.05;7.15;;;17.80;35.20;;;;;;5091856;28;20035;-78
2022/03/24 15:24:59;;;;;;;13.30;7.78;;;17.80;35.60;;;;;;5090583;28;20123;-79
2022/03/24 15:27:26;;;;;;;12.38;7.30;;;17.80;35.00;;;;;;5090429;28;20123;-78
2022/03/24 15:29:52;;;;;;;14.93;8.02;;;17.80;36.10;;;;;;5088869;28;20450;-78
2022/03/24 15:32:18;;;;;;;11.55;7.70;;;17.80;35.40;;;;;;5079839;28;20466;-78
2022/03/24 15:34:44;;;;;;;13.30;7.55;;;17.70;35.40;;;;;;5090450;28;20046;-78
2022/03/24 15:37:10;;;;;;;10.75;7.07;;;17.70;35.50;;;;;;5054289;28;20036;-77
2022/03/24 15:39:36;;;;;;;11.50;7.35;;;17.60;36.40;;;;;;5073403;28;20462;-78
2022/03/24 15:42:02;;;;;;;12.23;6.90;;;17.60;36.00;;;;;;5083751;28;20081;-79
2022/03/24 15:44:27;;;;;;;13.38;7.40;;;17.50;36.70;;;;;;5091990;28;20036;-79
2022/03/24 15:46:53;;;;;;;12.45;8.05;;;17.30;36.70;;;;;;5091152;28;20063;-77
2022/03/24 15:49:19;;;;;;;12.60;7.38;;;17.20;37.80;;;;;;5084117;28;20024;-77
2022/03/24 15:51:45;;;;;;;12.60;7.82;;;17.10;38.10;;;;;;5054970;28;20125;-78
2022/03/24 15:54:10;;;;;;;12.75;7.60;;;17.00;36.50;;;;;;5070239;28;20399;-78
2022/03/24 15:56:38;;;;;;;13.23;7.63;;;16.90;35.00;;;;;;5054268;28;20111;-77
2022/03/24 15:59:10;;;;;;;11.68;7.18;;;16.80;35.60;;;;;;5087201;28;20093;-77
2022/03/24 16:01:37;;;;;;;12.07;7.75;;;16.60;34.80;;;;;;5083907;28;20028;-78
2022/03/24 16:04:03;;;;;;;13.63;7.63;;;16.50;34.60;;;;;;5079133;28;20406;-82
2022/03/24 16:06:29;;;;;;;12.77;7.28;;;16.40;34.30;;;;;;5082510;28;20040;-76
2022/03/24 16:08:55;;;;;;;10.63;6.35;;;16.30;34.20;;;;;;5085879;28;20081;-77
2022/03/24 16:11:21;;;;;;;12.18;7.47;;;16.30;34.20;;;;;;5091280;28;20032;-78
2022/03/24 16:13:46;;;;;;;11.02;6.93;;;16.20;34.80;;;;;;5091293;28;20032;-78
2022/03/24 16:16:12;;;;;;;13.57;7.95;;;16.10;34.90;;;;;;5078889;28;20032;-79
2022/03/24 16:18:41;;;;;;;12.55;7.22;;;16.10;35.40;;;;;;5090279;28;20036;-78
2022/03/24 16:21:08;;;;;;;11.48;6.85;;;16.00;35.50;;;;;;5090870;28;20926;-77
2022/03/24 16:23:34;;;;;;;11.43;6.75;;;15.90;35.50;;;;;;5082765;28;20056;-76
2022/03/24 16:26:00;;;;;;;11.63;6.97;;;15.80;36.10;;;;;;5073457;28;20032;-77
2022/03/24 16:28:26;;;;;;;10.85;6.30;;;15.80;36.20;;;;;;5089508;28;20020;-77
2022/03/24 16:30:52;;;;;;;10.70;6.63;;;15.80;36.20;;;;;;5085981;28;20394;-77
2022/03/24 16:33:18;;;;;;;11.25;6.15;;;15.80;35.10;;;;;;5090903;28;20124;-78
2022/03/24 16:35:43;;;;;;;14.05;6.68;;;15.70;35.70;;;;;;5090124;28;20132;-77
2022/03/24 16:38:10;;;;;;;10.32;6.30;;;15.70;35.80;;;;;;5089136;28;20489;-78
2022/03/24 16:40:35;;;;;;;10.90;6.72;;;15.60;35.50;;;;;;5066133;28;20040;-78
2022/03/24 16:43:01;;;;;;;10.05;5.93;;;15.50;35.50;;;;;;5075100;28;20024;-79
2022/03/24 16:45:27;;;;;;;10.40;6.68;;;15.50;37.00;;;;;;5063310;28;20532;-79
2022/03/24 16:47:53;;;;;;;11.07;6.60;;;15.30;37.90;;;;;;5082603;28;20036;-77
2022/03/24 16:50:22;;;;;;;11.75;6.65;;;15.20;37.60;;;;;;5073859;28;20032;-80
2022/03/24 16:52:51;;;;;;;11.18;5.72;;;15.10;37.80;;;;;;5075161;28;20024;-79
2022/03/24 16:55:18;;;;;;;8.98;5.57;;;15.00;37.70;;;;;;5076010;28;20032;-76
2022/03/24 16:57:44;;;;;;;9.30;5.68;;;14.90;37.80;;;;;;5062591;28;20040;-78
2022/03/24 17:00:12;;;;;;;8.77;5.60;;;14.80;38.20;;;;;;5068546;28;20037;-80
2022/03/24 17:02:38;;;;;;;14.07;6.85;;;14.70;38.80;;;;;;5063327;28;20023;-77
2022/03/24 17:05:05;;;;;;;15.15;8.02;;;14.60;40.30;;;;;;5077803;28;20040;-81
2022/03/24 17:07:31;;;;;;;14.55;7.65;;;14.60;42.20;;;;;;5083336;28;20040;-81
2022/03/24 17:10:01;;;;;;;16.00;8.27;;;14.50;42.80;;;;;;5071441;28;20031;-76
2022/03/24 17:12:27;;;;;;;14.80;8.90;;;14.50;43.80;;;;;;5072793;28;20036;-81
2022/03/24 17:14:54;;;;;;;15.15;8.63;;;14.40;44.00;;;;;;5068159;28;20036;-82
2022/03/24 17:17:21;;;;;;;16.48;9.50;;;14.40;44.40;;;;;;5064067;28;20044;-76
2022/03/24 17:19:48;;;;;;;21.45;10.88;;;14.30;45.00;;;;;;5067556;28;20128;-81
2022/03/24 17:22:14;;;;;;;21.67;11.60;;;14.20;45.90;;;;;;5062048;28;20517;-77
2022/03/24 17:24:40;;;;;;;22.42;12.40;;;14.10;46.00;;;;;;5064126;28;20051;-76
2022/03/24 17:27:06;;;;;;;24.65;11.65;;;14.10;46.60;;;;;;5077687;28;20056;-77
2022/03/24 17:29:32;;;;;;;27.77;13.15;;;14.00;46.70;;;;;;5070333;28;20567;-82
2022/03/24 17:31:58;;;;;;;24.33;13.00;;;13.90;47.00;;;;;;5078832;28;20097;-78
2022/03/24 17:34:24;;;;;;;29.45;13.40;;;13.90;47.20;;;;;;5075026;28;20143;-78
2022/03/24 17:36:53;;;;;;;27.92;12.38;;;13.80;47.20;;;;;;5073210;28;20025;-80
2022/03/24 17:39:19;;;;;;;25.42;13.18;;;13.80;47.50;;;;;;5079474;28;20076;-78
2022/03/24 17:41:45;;;;;;;22.58;12.18;;;13.70;47.90;;;;;;5087317;28;20016;-81
2022/03/24 17:44:12;;;;;;;23.63;12.90;;;13.60;48.10;;;;;;5091227;28;20028;-81
2022/03/24 17:46:38;;;;;;;27.58;13.80;;;13.50;48.40;;;;;;5091553;28;20123;-78
2022/03/24 17:49:06;;;;;;;24.40;13.52;;;13.40;48.70;;;;;;5077168;28;20043;-77
2022/03/24 17:51:32;;;;;;;23.88;12.93;;;13.30;49.10;;;;;;5073115;28;20032;-79
2022/03/24 17:53:58;;;;;;;28.08;13.88;;;13.20;49.20;;;;;;5073239;28;20028;-77
2022/03/24 17:56:24;;;;;;;27.65;14.10;;;13.20;49.10;;;;;;5071872;28;20028;-78
2022/03/24 17:58:53;;;;;;;24.05;13.63;;;13.10;49.20;;;;;;5057598;28;20039;-77
2022/03/24 18:01:19;;;;;;;30.80;14.70;;;13.00;49.30;;;;;;5093569;28;20036;-77
2022/03/24 18:03:45;;;;;;;29.70;13.82;;;12.90;49.30;;;;;;5072099;28;20055;-77
2022/03/24 18:06:11;;;;;;;26.13;13.48;;;12.90;50.00;;;;;;5080977;28;20040;-78
2022/03/24 18:08:37;;;;;;;26.30;13.40;;;12.80;50.10;;;;;;5093562;28;20024;-77
2022/03/24 18:11:05;;;;;;;29.27;15.05;;;12.70;50.60;;;;;;5093452;28;20032;-77
2022/03/24 18:13:31;;;;;;;29.88;15.43;;;12.70;50.60;;;;;;5081483;28;20439;-77
2022/03/24 18:15:57;;;;;;;28.27;14.00;;;12.60;50.80;;;;;;5093178;28;20025;-78
2022/03/24 18:18:23;;;;;;;31.02;14.30;;;12.50;51.10;;;;;;5093376;28;20032;-78
2022/03/24 18:20:50;;;;;;;29.58;14.73;;;12.50;51.70;;;;;;5077974;28;20086;-76
2022/03/24 18:23:16;;;;;;;30.85;14.95;;;12.40;51.50;;;;;;5073806;28;20042;-77
2022/03/24 18:25:44;;;;;;;32.67;16.00;;;12.30;51.60;;;;;;5075141;28;20102;-77
2022/03/24 18:28:10;;;;;;;31.77;15.07;;;12.20;51.90;;;;;;5092836;28;20517;-76
2022/03/24 18:30:39;;;;;;;31.58;14.60;;;12.20;52.20;;;;;;5065439;28;20111;-79
2022/03/24 18:33:09;;;;;;;30.17;14.85;;;12.20;52.50;;;;;;5072669;28;20039;-79
2022/03/24 18:35:38;;;;;;;31.90;15.13;;;12.10;52.80;;;;;;5071541;28;20512;-79
2022/03/24 18:38:04;;;;;;;31.17;16.00;;;12.10;52.50;;;;;;5054687;28;20048;-76
2022/03/24 18:40:31;;;;;;;32.13;15.60;;;12.10;52.60;;;;;;5072589;28;20127;-77
2022/03/24 18:42:57;;;;;;;31.60;15.45;;;12.00;53.10;;;;;;5096422;22;20144;-84
2022/03/24 18:45:23;;;;;;;29.15;15.23;;;12.00;53.00;;;;;;5012407;28;20193;-83
2022/03/24 18:47:48;;;;;;;35.35;16.50;;;11.90;53.30;;;;;;5028742;28;20033;-84
2022/03/24 18:50:15;;;;;;;37.38;17.45;;;11.90;53.60;;;;;;5035251;28;20039;-84
2022/03/24 18:52:41;;;;;;;27.83;15.05;;;11.80;53.40;;;;;;5035297;28;20025;-86
2022/03/24 18:55:07;;;;;;;29.90;14.60;;;11.80;54.70;;;;;;5034851;28;20063;-84
2022/03/24 18:57:33;;;;;;;30.40;14.35;;;11.60;54.70;;;;;;5018102;28;20494;-84
2022/03/24 18:59:59;;;;;;;25.83;13.82;;;11.50;54.90;;;;;;5051315;28;20056;-85
2022/03/24 19:02:25;;;;;;;29.15;14.05;;;11.40;55.60;;;;;;5035603;28;20037;-85
2022/03/24 19:04:50;;;;;;;27.45;14.70;;;11.30;56.30;;;;;;5034455;28;20038;-85
2022/03/24 19:07:17;;;;;;;30.80;14.32;;;11.10;56.90;;;;;;4998774;28;20079;-85
2022/03/24 19:09:43;;;;;;;27.15;14.05;;;11.00;56.80;;;;;;5015349;28;20034;-84
2022/03/24 19:12:09;;;;;;;28.65;15.02;;;10.90;57.40;;;;;;4999247;28;20033;-85
2022/03/24 19:14:35;;;;;;;30.83;14.63;;;10.80;57.10;;;;;;5023483;28;20372;-85
2022/03/24 19:17:01;;;;;;;28.38;14.30;;;10.70;57.30;;;;;;5026373;28;20040;-85
2022/03/24 19:19:29;;;;;;;26.48;12.80;;;10.60;57.60;;;;;;5018285;28;20059;-84
2022/03/24 19:21:59;;;;;;;28.48;14.48;;;10.50;58.10;;;;;;5034727;28;20462;-85
2022/03/24 19:24:27;;;;;;;27.95;14.50;;;10.40;57.90;;;;;;5035036;28;20187;-84
2022/03/24 19:26:52;;;;;;;30.48;14.55;;;10.40;58.20;;;;;;5030230;28;20070;-84
2022/03/24 19:29:18;;;;;;;26.55;14.23;;;10.30;58.60;;;;;;5041125;28;20518;-84
2022/03/24 19:31:44;;;;;;;27.80;13.70;;;10.30;58.70;;;;;;5016980;28;20035;-85
2022/03/24 19:34:10;;;;;;;29.10;14.75;;;10.20;59.20;;;;;;5050067;28;20033;-85
2022/03/24 19:36:36;;;;;;;28.38;13.05;;;10.10;59.50;;;;;;4981966;28;20030;-84
2022/03/24 19:39:04;;;;;;;27.45;12.43;;;10.00;58.90;;;;;;5031042;28;20527;-85
2022/03/24 19:41:31;;;;;;;26.48;13.55;;;10.00;59.40;;;;;;5014379;28;20478;-83
2022/03/24 19:43:57;;;;;;;29.38;13.98;;;9.90;59.50;;;;;;5014812;28;20132;-84
2022/03/24 19:46:22;;;;;;;30.95;13.95;;;9.90;59.30;;;;;;4981613;28;20171;-84
2022/03/24 19:48:48;;;;;;;27.38;13.98;;;9.80;59.90;;;;;;4990098;28;20040;-85
